SVMG/PMV METAR and TAF weather

Enter ICAO airport designator
Station Type Date Time Source
SVMG METAR 2021/05/12 02:02 UTC NOAA

SVMG 120202Z AUTO 08013KT NCD 31/24 Q1014


Station Type Date Time Source
SVMG Decoded METAR 2021/05/12 02:02 UTC NOAA

Margarita / Del Carib, Venezuela (SVMG) 10-55N 063-59W
May 11, 2021 - 10:02 PM EDT / 2021.05.12 0202 UTC
Wind: from the E (080 degrees) at 15 MPH (13 KT):0
Temperature: 87 F (31 C)
Heat index: 95.7 F (35.4 C):1
Dew Point: 75 F (24 C)
Relative Humidity: 66%
Pressure (altimeter): 29.94 in. Hg (1014 hPa)
ob: SVMG 120202Z AUTO 08013KT NCD 31/24 Q1014
cycle: 2

Station Type Date Time Source
SVMG TAF 2021/05/11 18:03 UTC NOAA

TAF SVMG 111600Z 1118/1218 14002KT 9999 FEW010 TX33/1118Z TN24/1108Z
BECMG 1118/1122 07004KT 9999 SCT070

Example: see airport list